| time (UTC) | temp F | wind direction | speed MPH | gust MPH | rain 1hr in | rain 24hr in | rain mn in | humidity % | barometer mb |
| 20260504201526 | 72 | 324 | 4.0 | 10.0 | 0.00 | 0.00 | 0.00 | 21 | 1007.0 |
| 20260504200537 | 73 | 36 | 2.0 | 6.0 | 0.00 | 0.00 | 0.00 | 23 | 1007.5 |
| 20260504195525 | 72 | 13 | 2.0 | 3.0 | 0.00 | 0.00 | 0.00 | 23 | 1007.2 |
| 20260504194527 | 71 | 0 | 4.0 | 5.0 | 0.00 | 0.00 | 0.00 | 23 | 1007.4 |
| 20260504193529 | 70 | 5 | 5.0 | 6.0 | 0.00 | 0.00 | 0.00 | 24 | 1007.3 |
| 20260504192532 | 70 | 36 | 3.0 | 8.0 | 0.00 | 0.00 | 0.00 | 24 | 1007.7 |
| 20260504191522 | 69 | 26 | 3.0 | 9.0 | 0.00 | 0.00 | 0.00 | 24 | 1007.9 |
| 20260504190523 | 69 | 53 | 4.0 | 5.0 | 0.00 | 0.00 | 0.00 | 24 | 1008.1 |
| 20260504185524 | 68 | 348 | 5.0 | 7.0 | 0.00 | 0.00 | 0.00 | 24 | 1007.7 |
| 20260504184527 | 67 | 335 | 5.0 | 9.0 | 0.00 | 0.00 | 0.00 | 26 | 1008.0 |
| 20260504183618 | 68 | 330 | 3.0 | 9.0 | 0.00 | 0.00 | 0.00 | 26 | 1008.2 |
| 20260504182529 | 67 | 135 | 3.0 | 5.0 | 0.00 | 0.00 | 0.00 | 29 | 1008.4 |
| 20260504181531 | 65 | 71 | 3.0 | 6.0 | 0.00 | 0.00 | 0.00 | 27 | 1008.4 |
| 20260504180532 | 64 | 9 | 4.0 | 5.0 | 0.00 | 0.00 | 0.00 | 27 | 1008.5 |
| 20260504175521 | 64 | 5 | 4.0 | 7.0 | 0.00 | 0.00 | 0.00 | 27 | 1008.5 |
| 20260504174532 | 63 | 41 | 2.0 | 6.0 | 0.00 | 0.00 | 0.00 | 31 | 1008.7 |
| 20260504173525 | 62 | 319 | 2.0 | 7.0 | 0.00 | 0.00 | 0.00 | 30 | 1008.7 |
| 20260504172526 | 61 | 307 | 2.0 | 2.0 | 0.00 | 0.00 | 0.00 | 31 | 1008.7 |
| 20260504171526 | 61 | 284 | 3.0 | 3.0 | 0.00 | 0.00 | 0.00 | 31 | 1009.0 |
| 20260504170528 | 60 | 306 | 3.0 | 6.0 | 0.00 | 0.00 | 0.00 | 32 | 1009.1 |
| 20260504150526 | 47 | 349 | 2.0 | 2.0 | 0.00 | 0.00 | 0.00 | 47 | 1008.2 |
| 20260504140611 | 42 | 49 | 1.0 | 1.0 | 0.00 | 0.00 | 0.00 | 55 | 1007.8 |
| 20260504130618 | 38 | 286 | 1.0 | 2.0 | 0.00 | 0.00 | 0.00 | 58 | 1006.9 |
| 20260504110522 | 40 | 263 | 1.0 | 1.0 | 0.00 | 0.00 | 0.00 | 53 | 1007.8 |
| 20260504100521 | 42 | 145 | 0.0 | 1.0 | 0.00 | 0.00 | 0.00 | 52 | 1007.9 |
| 20260504081521 | 44 | 0.0 | 0.0 | 0.00 | 0.00 | 0.00 | 47 | 1007.8 | |
| 20260504080526 | 44 | 0.0 | 0.0 | 0.00 | 0.00 | 0.00 | 46 | 1007.8 | |
| 20260504050527 | 53 | 0.0 | 0.0 | 0.00 | 0.00 | 0.00 | 36 | 1007.0 | |
| 20260504045529 | 54 | 90 | 0.0 | 0.0 | 0.00 | 0.00 | 0.00 | 35 | 1007.4 |
| 20260504044531 | 55 | 102 | 1.0 | 1.0 | 0.00 | 0.00 | 0.00 | 31 | 1006.7 |
| 20260504043528 | 56 | 297 | 2.0 | 2.0 | 0.00 | 0.00 | 0.00 | 29 | 1006.7 |
| 20260504042539 | 56 | 315 | 2.0 | 2.0 | 0.00 | 0.00 | 0.00 | 29 | 1006.4 |
| 20260504041530 | 57 | 306 | 2.0 | 3.0 | 0.00 | 0.00 | 0.00 | 28 | 1005.9 |
| 20260504040522 | 58 | 315 | 1.0 | 2.0 | 0.00 | 0.00 | 0.00 | 28 | 1006.3 |
| 20260504035550 | 58 | 297 | 1.0 | 2.0 | 0.00 | 0.00 | 0.00 | 27 | 1006.3 |
| 20260504034526 | 59 | 293 | 2.0 | 2.0 | 0.00 | 0.00 | 0.00 | 26 | 1005.4 |
| 20260504033523 | 60 | 311 | 3.0 | 4.0 | 0.00 | 0.00 | 0.00 | 26 | 1005.7 |
| 20260504032615 | 60 | 306 | 5.0 | 5.0 | 0.00 | 0.00 | 0.00 | 25 | 1005.7 |
| 20260504031535 | 61 | 340 | 4.0 | 6.0 | 0.00 | 0.00 | 0.00 | 25 | 1005.2 |
| 20260504030526 | 62 | 306 | 5.0 | 5.0 | 0.00 | 0.00 | 0.00 | 24 | 1005.0 |
| 20260504025528 | 62 | 324 | 4.0 | 9.0 | 0.00 | 0.00 | 0.00 | 24 | 1004.9 |
| 20260504024607 | 63 | 276 | 3.0 | 4.0 | 0.00 | 0.00 | 0.00 | 24 | 1005.1 |
| 20260504023546 | 63 | 301 | 4.0 | 5.0 | 0.00 | 0.00 | 0.00 | 23 | 1005.3 |
| 20260504022744 | 64 | 328 | 4.0 | 5.0 | 0.00 | 0.00 | 0.00 | 23 | 1006.1 |
| 20260504021529 | 65 | 320 | 4.0 | 5.0 | 0.00 | 0.00 | 0.00 | 23 | 1006.2 |
| 20260504020520 | 65 | 306 | 5.0 | 6.0 | 0.00 | 0.00 | 0.00 | 22 | 1006.6 |
| 20260504015548 | 66 | 316 | 5.0 | 8.0 | 0.00 | 0.00 | 0.00 | 22 | 1006.7 |
| 20260504013524 | 66 | 307 | 8.0 | 12.0 | 0.00 | 0.00 | 0.00 | 20 | 1006.9 |
| 20260504012525 | 67 | 298 | 6.0 | 12.0 | 0.00 | 0.00 | 0.00 | 21 | 1007.0 |
| 20260504011526 | 68 | 315 | 6.0 | 11.0 | 0.00 | 0.00 | 0.00 | 21 | 1007.4 |
| 20260504010528 | 69 | 302 | 7.0 | 11.0 | 0.00 | 0.00 | 0.00 | 19 | 1007.3 |
| 20260504005603 | 69 | 301 | 8.0 | 12.0 | 0.00 | 0.00 | 0.00 | 19 | 1007.3 |
| 20260504004520 | 71 | 301 | 7.0 | 13.0 | 0.00 | 0.00 | 0.00 | 18 | 1007.8 |
| 20260504003521 | 72 | 278 | 6.0 | 7.0 | 0.00 | 0.00 | 0.00 | 18 | 1008.0 |
| 20260504002523 | 72 | 292 | 5.0 | 9.0 | 0.00 | 0.00 | 0.00 | 18 | 1008.0 |
| 20260504001550 | 70 | 297 | 6.0 | 8.0 | 0.00 | 0.00 | 0.00 | 18 | 1007.7 |
| 20260504000526 | 72 | 314 | 7.0 | 10.0 | 0.00 | 0.00 | 0.00 | 18 | 1008.3 |
| 20260503235527 | 74 | 310 | 5.0 | 12.0 | 0.00 | 0.00 | 0.00 | 18 | 1008.8 |
| 20260503234531 | 73 | 306 | 4.0 | 6.0 | 0.00 | 0.00 | 0.00 | 21 | 1008.9 |
| 20260503233556 | 72 | 283 | 5.0 | 7.0 | 0.00 | 0.00 | 0.00 | 19 | 1008.8 |
| 20260503231524 | 74 | 310 | 6.0 | 11.0 | 0.00 | 0.00 | 0.00 | 17 | 1009.5 |
| 20260503225528 | 73 | 339 | 6.0 | 9.0 | 0.00 | 0.00 | 0.00 | 17 | 1009.7 |
| 20260503224603 | 74 | 336 | 5.0 | 6.0 | 0.00 | 0.00 | 0.00 | 17 | 1010.2 |
| 20260503223529 | 74 | 293 | 6.0 | 8.0 | 0.00 | 0.00 | 0.00 | 17 | 1010.1 |
| 20260503222524 | 74 | 306 | 6.0 | 9.0 | 0.00 | 0.00 | 0.00 | 17 | 1010.5 |
| 20260503221536 | 73 | 304 | 6.0 | 7.0 | 0.00 | 0.00 | 0.00 | 17 | 1010.4 |
| 20260503220526 | 74 | 280 | 5.0 | 13.0 | 0.00 | 0.00 | 0.00 | 17 | 1010.8 |
| 20260503215528 | 73 | 328 | 3.0 | 7.0 | 0.00 | 0.00 | 0.00 | 17 | 1010.9 |
| 20260503214531 | 72 | 265 | 7.0 | 8.0 | 0.00 | 0.00 | 0.00 | 17 | 1010.8 |
| 20260503213530 | 74 | 292 | 6.0 | 11.0 | 0.00 | 0.00 | 0.00 | 17 | 1011.2 |
| 20260503212716 | 74 | 335 | 5.0 | 9.0 | 0.00 | 0.00 | 0.00 | 17 | 1011.5 |
| 20260503211532 | 74 | 333 | 5.0 | 5.0 | 0.00 | 0.00 | 0.00 | 18 | 1011.6 |
| 20260503210524 | 74 | 302 | 6.0 | 8.0 | 0.00 | 0.00 | 0.00 | 17 | 1011.8 |
| 20260503205525 | 74 | 313 | 4.0 | 13.0 | 0.00 | 0.00 | 0.00 | 18 | 1012.0 |
| 20260503204525 | 73 | 216 | 5.0 | 8.0 | 0.00 | 0.00 | 0.00 | 18 | 1012.1 |
| 20260503203529 | 72 | 299 | 4.0 | 6.0 | 0.00 | 0.00 | 0.00 | 19 | 1012.1 |
| 20260503202601 | 71 | 270 | 3.0 | 7.0 | 0.00 | 0.00 | 0.00 | 20 | 1012.0 |